createdAt,value
2019-03-27T00:00:36.062Z,54.87
2019-03-27T00:01:41.815Z,56.72
2019-03-27T00:02:47.620Z,56.87
2019-03-27T00:03:53.396Z,56.65
2019-03-27T00:05:00.311Z,55.54
2019-03-27T00:06:06.051Z,54.51
2019-03-27T00:07:11.935Z,56.16
2019-03-27T00:08:17.673Z,56.99
2019-03-27T00:09:23.456Z,56.98
2019-03-27T00:10:29.281Z,56.85
2019-03-27T00:11:36.943Z,55.56
2019-03-27T00:12:42.835Z,54.67
2019-03-27T00:13:48.564Z,56.20
2019-03-27T00:14:55.444Z,57.04
2019-03-27T00:16:01.349Z,57.02
2019-03-27T00:17:07.052Z,56.05
2019-03-27T00:18:12.794Z,54.44
2019-03-27T00:19:18.584Z,55.85
2019-03-27T00:20:24.409Z,56.88
2019-03-27T00:21:30.115Z,57.13
2019-03-27T00:22:37.987Z,56.78
2019-03-27T00:23:44.858Z,55.11
2019-03-27T00:24:50.622Z,54.51
2019-03-27T00:25:56.423Z,56.30
2019-03-27T00:27:02.212Z,56.79
2019-03-27T00:28:07.959Z,56.91
2019-03-27T00:29:13.695Z,56.73
2019-03-27T00:30:19.467Z,56.52
2019-03-27T00:31:26.420Z,55.09
2019-03-27T00:32:32.321Z,54.60
2019-03-27T00:33:38.064Z,56.19
2019-03-27T00:34:43.859Z,56.65
2019-03-27T00:35:49.605Z,56.24
2019-03-27T00:36:55.376Z,55.18
2019-03-27T00:38:01.081Z,54.44
2019-03-27T00:39:08.359Z,55.95
2019-03-27T00:40:14.095Z,56.58
2019-03-27T00:41:19.834Z,56.56
2019-03-27T00:42:26.962Z,55.56
2019-03-27T00:43:32.703Z,54.35
2019-03-27T00:44:38.452Z,55.77
2019-03-27T00:45:44.230Z,56.70
2019-03-27T00:46:50.017Z,56.50
2019-03-27T00:47:55.779Z,54.69
2019-03-27T00:49:01.523Z,54.38
2019-03-27T00:50:11.174Z,55.89
2019-03-27T00:51:16.971Z,56.48
2019-03-27T00:52:22.717Z,56.42
2019-03-27T00:53:28.457Z,54.68
2019-03-27T00:54:35.983Z,53.68
2019-03-27T00:55:42.007Z,55.83
2019-03-27T00:56:47.868Z,56.46
2019-03-27T00:57:53.652Z,56.62
2019-03-27T00:58:59.366Z,55.84
2019-03-27T01:00:12.483Z,53.85
2019-03-27T01:01:18.369Z,55.04
2019-03-27T01:02:24.171Z,56.28
2019-03-27T01:03:29.971Z,56.49
2019-03-27T01:04:36.923Z,55.97
2019-03-27T01:05:43.884Z,53.94
2019-03-27T01:06:51.150Z,53.92
2019-03-27T01:07:57.073Z,55.92
2019-03-27T01:09:02.841Z,56.73
2019-03-27T01:10:10.227Z,56.56
2019-03-27T01:11:16.003Z,54.19
2019-03-27T01:12:21.753Z,53.65
2019-03-27T01:13:27.467Z,55.55
2019-03-27T01:14:34.015Z,56.21
2019-03-27T01:15:40.399Z,56.00
2019-03-27T01:16:46.164Z,54.09
2019-03-27T01:17:51.885Z,53.27
2019-03-27T01:18:58.816Z,55.45
2019-03-27T01:20:06.797Z,56.59
2019-03-27T01:21:14.965Z,56.63
2019-03-27T01:22:20.771Z,56.60
2019-03-27T01:23:26.980Z,55.67
2019-03-27T01:24:33.654Z,53.72
2019-03-27T01:25:39.476Z,54.88
2019-03-27T01:26:46.453Z,56.23
2019-03-27T01:27:52.235Z,56.28
2019-03-27T01:28:59.084Z,55.86
2019-03-27T01:30:06.630Z,53.86
2019-03-27T01:31:12.405Z,54.01
2019-03-27T01:32:18.191Z,55.61
2019-03-27T01:33:23.954Z,56.49
2019-03-27T01:34:29.659Z,56.65
2019-03-27T01:35:35.476Z,55.91
2019-03-27T01:36:41.236Z,54.06
2019-03-27T01:37:46.968Z,55.54
2019-03-27T01:38:52.692Z,56.72
2019-03-27T01:39:58.439Z,56.56
2019-03-27T01:41:04.161Z,55.19
2019-03-27T01:42:09.852Z,53.58
2019-03-27T01:43:15.676Z,55.23
2019-03-27T01:44:21.409Z,56.41
2019-03-27T01:45:27.171Z,56.14
2019-03-27T01:46:34.145Z,56.12
2019-03-27T01:47:41.115Z,54.37
2019-03-27T01:48:47.354Z,54.75
2019-03-27T01:49:53.113Z,55.90
2019-03-27T01:50:58.992Z,56.42
2019-03-27T01:52:08.145Z,55.97
2019-03-27T01:53:14.077Z,53.84
2019-03-27T01:54:19.815Z,53.94
2019-03-27T01:55:25.536Z,55.62
2019-03-27T01:56:31.268Z,56.27
2019-03-27T01:57:37.089Z,56.37
2019-03-27T01:58:42.869Z,56.02
2019-03-27T01:59:50.140Z,56.03
2019-03-27T02:00:55.964Z,54.69
2019-03-27T02:02:01.688Z,54.79
2019-03-27T02:03:12.897Z,55.68
2019-03-27T02:04:18.611Z,56.18
2019-03-27T02:05:24.562Z,55.83
2019-03-27T02:06:30.234Z,55.00
2019-03-27T02:07:37.356Z,54.00
2019-03-27T02:08:43.112Z,55.39
2019-03-27T02:09:48.854Z,56.23
2019-03-27T02:10:54.647Z,56.16
2019-03-27T02:12:00.422Z,54.86
2019-03-27T02:13:06.264Z,54.03
2019-03-27T02:14:12.068Z,55.55
2019-03-27T02:15:19.074Z,56.17
2019-03-27T02:16:24.754Z,55.90
2019-03-27T02:17:30.453Z,54.11
2019-03-27T02:18:36.220Z,53.82
2019-03-27T02:19:42.067Z,55.68
2019-03-27T02:20:48.399Z,56.36
2019-03-27T02:21:54.232Z,56.47
2019-03-27T02:23:00.046Z,55.48
2019-03-27T02:24:05.782Z,53.64
2019-03-27T02:25:11.525Z,55.12
2019-03-27T02:26:18.640Z,55.93
2019-03-27T02:27:25.663Z,56.05
2019-03-27T02:28:31.451Z,55.82
2019-03-27T02:29:37.150Z,53.81
2019-03-27T02:30:42.936Z,54.27
2019-03-27T02:31:48.617Z,55.82
2019-03-27T02:32:54.386Z,55.98
2019-03-27T02:34:00.227Z,55.24
2019-03-27T02:35:06.589Z,53.29
2019-03-27T02:36:12.371Z,54.58
2019-03-27T02:37:19.644Z,56.26
2019-03-27T02:38:25.556Z,56.56
2019-03-27T02:39:31.282Z,55.70
2019-03-27T02:40:37.142Z,53.80
2019-03-27T02:41:44.311Z,54.91
2019-03-27T02:42:50.276Z,56.11
2019-03-27T02:43:56.010Z,56.28
2019-03-27T02:45:01.740Z,55.40
2019-03-27T02:46:23.382Z,53.51
2019-03-27T02:47:15.000Z,54.92
2019-03-27T02:48:20.701Z,55.94
2019-03-27T02:49:26.521Z,55.97
2019-03-27T02:50:32.238Z,54.88
2019-03-27T02:51:37.982Z,52.88
2019-03-27T02:52:43.725Z,54.59
2019-03-27T02:53:50.327Z,55.50
2019-03-27T02:54:56.064Z,55.44
2019-03-27T02:56:01.812Z,54.30
2019-03-27T02:57:07.599Z,52.75
2019-03-27T02:58:13.382Z,54.26
2019-03-27T02:59:19.067Z,55.05
2019-03-27T03:00:24.866Z,55.00
2019-03-27T03:01:30.806Z,54.56
2019-03-27T03:02:37.906Z,52.63
2019-03-27T03:03:43.744Z,52.85
2019-03-27T03:04:49.536Z,54.62
2019-03-27T03:05:55.330Z,55.22
2019-03-27T03:07:01.102Z,55.14
2019-03-27T03:08:07.997Z,54.73
2019-03-27T03:09:13.753Z,52.98
2019-03-27T03:10:20.760Z,53.85
2019-03-27T03:11:27.738Z,55.18
2019-03-27T03:12:33.533Z,55.31
2019-03-27T03:13:39.270Z,55.19
2019-03-27T03:14:44.984Z,55.05
2019-03-27T03:15:50.856Z,53.58
2019-03-27T03:16:58.660Z,53.13
2019-03-27T03:18:04.396Z,53.96
2019-03-27T03:19:10.672Z,53.97
2019-03-27T03:20:16.439Z,53.84
2019-03-27T03:21:22.159Z,53.74
2019-03-27T03:22:27.948Z,52.68
2019-03-27T03:23:33.635Z,53.95
2019-03-27T03:24:39.350Z,54.59
2019-03-27T03:25:45.108Z,54.43
2019-03-27T03:26:51.643Z,54.31
2019-03-27T03:27:58.555Z,53.86
2019-03-27T03:29:04.259Z,52.84
2019-03-27T03:30:11.706Z,51.89
2019-03-27T03:31:17.498Z,53.37
2019-03-27T03:32:23.198Z,53.73
2019-03-27T03:33:28.924Z,53.73
2019-03-27T03:34:34.683Z,53.50
2019-03-27T03:35:41.188Z,53.05
2019-03-27T03:36:46.937Z,51.55
2019-03-27T03:37:52.651Z,52.11
2019-03-27T03:38:59.562Z,53.25
2019-03-27T03:40:09.149Z,53.47
2019-03-27T03:41:14.874Z,53.45
2019-03-27T03:42:21.861Z,52.92
2019-03-27T03:43:27.684Z,51.20
2019-03-27T03:44:34.238Z,51.99
2019-03-27T03:45:40.425Z,52.70
2019-03-27T03:46:58.838Z,52.93
2019-03-27T03:47:53.626Z,53.00
2019-03-27T03:48:59.327Z,52.23
2019-03-27T03:50:07.829Z,50.78
2019-03-27T03:51:13.541Z,52.19
2019-03-27T03:52:20.475Z,52.61
2019-03-27T03:53:27.034Z,52.12
2019-03-27T03:54:32.748Z,51.72
2019-03-27T03:55:40.082Z,51.58
2019-03-27T03:56:45.778Z,51.22
2019-03-27T03:57:51.544Z,50.86
2019-03-27T03:58:59.431Z,51.17
2019-03-27T04:00:07.159Z,51.51
2019-03-27T04:01:13.297Z,51.51
2019-03-27T04:02:19.022Z,51.46
2019-03-27T04:03:27.018Z,51.51
2019-03-27T04:04:32.761Z,51.51
2019-03-27T04:05:39.613Z,51.74
2019-03-27T04:06:45.352Z,51.82
2019-03-27T04:07:51.064Z,51.68
2019-03-27T04:08:56.838Z,51.81
2019-03-27T04:10:02.563Z,51.94
2019-03-27T04:11:09.898Z,51.87
2019-03-27T04:12:15.817Z,51.82
2019-03-27T04:13:21.512Z,51.59
2019-03-27T04:14:27.248Z,51.32
2019-03-27T04:15:34.043Z,51.00
2019-03-27T04:16:39.754Z,51.50
2019-03-27T04:17:45.539Z,51.64
2019-03-27T04:18:51.238Z,51.13
2019-03-27T04:19:56.943Z,49.74
2019-03-27T04:21:02.651Z,50.24
2019-03-27T04:22:08.390Z,50.97
2019-03-27T04:23:14.138Z,51.37
2019-03-27T04:24:19.853Z,51.51
2019-03-27T04:25:27.665Z,51.52
2019-03-27T04:26:35.081Z,51.21
2019-03-27T04:27:40.829Z,50.55
2019-03-27T04:28:46.614Z,50.96
2019-03-27T04:29:52.370Z,51.71
2019-03-27T04:30:58.091Z,51.64
2019-03-27T04:32:05.151Z,51.70
2019-03-27T04:33:10.918Z,51.45
2019-03-27T04:34:16.672Z,50.30
2019-03-27T04:35:22.502Z,50.59
2019-03-27T04:36:28.185Z,51.54
2019-03-27T04:37:33.948Z,51.80
2019-03-27T04:38:40.961Z,51.63
2019-03-27T04:39:46.676Z,51.60
2019-03-27T04:40:52.421Z,51.20
2019-03-27T04:41:59.757Z,50.74
2019-03-27T04:43:05.473Z,50.45
2019-03-27T04:44:11.211Z,50.97
2019-03-27T04:45:17.433Z,51.17
2019-03-27T04:46:23.231Z,50.97
2019-03-27T04:47:32.384Z,49.89
2019-03-27T04:48:37.682Z,50.53
2019-03-27T04:49:44.104Z,51.47
2019-03-27T04:50:50.698Z,51.68
2019-03-27T04:51:56.439Z,51.99
2019-03-27T04:53:04.108Z,51.20
2019-03-27T04:54:09.878Z,50.55
2019-03-27T04:55:15.584Z,51.42
2019-03-27T04:56:23.005Z,51.85
2019-03-27T04:57:28.897Z,51.86
2019-03-27T04:58:34.730Z,51.70
2019-03-27T04:59:40.476Z,50.15
2019-03-27T05:00:46.228Z,50.77
2019-03-27T05:01:52.095Z,51.67
2019-03-27T05:02:57.924Z,52.06
2019-03-27T05:04:04.151Z,52.32
2019-03-27T05:05:10.569Z,51.94
2019-03-27T05:06:16.378Z,50.27
2019-03-27T05:07:22.151Z,51.27
2019-03-27T05:08:27.958Z,52.58
2019-03-27T05:09:34.287Z,52.86
2019-03-27T05:10:41.306Z,53.21
2019-03-27T05:11:48.482Z,52.32
2019-03-27T05:12:54.296Z,51.25
2019-03-27T05:14:00.000Z,52.54
2019-03-27T05:15:07.922Z,53.22
2019-03-27T05:16:13.674Z,53.56
2019-03-27T05:17:19.373Z,52.07
2019-03-27T05:18:26.792Z,50.98
2019-03-27T05:19:32.546Z,52.97
2019-03-27T05:20:39.642Z,53.80
2019-03-27T05:21:45.613Z,53.92
2019-03-27T05:22:51.428Z,53.61
2019-03-27T05:23:57.180Z,52.23
2019-03-27T05:25:02.973Z,53.58
2019-03-27T05:26:08.740Z,54.69
2019-03-27T05:27:14.624Z,54.59
2019-03-27T05:28:20.401Z,53.75
2019-03-27T05:29:28.940Z,52.08
2019-03-27T05:30:34.711Z,53.12
2019-03-27T05:31:41.790Z,54.68
2019-03-27T05:32:54.872Z,53.61
2019-03-27T05:34:00.840Z,52.57
2019-03-27T05:35:07.878Z,51.88
2019-03-27T05:36:13.586Z,52.04
2019-03-27T05:37:19.305Z,52.48
2019-03-27T05:38:25.064Z,53.67
2019-03-27T05:39:31.667Z,53.39
2019-03-27T05:40:37.473Z,55.41
2019-03-27T05:42:16.327Z,55.11
2019-03-27T05:43:30.530Z,53.70
2019-03-27T05:44:37.136Z,54.57
2019-03-27T05:45:43.031Z,54.67
2019-03-27T05:46:48.747Z,55.99
2019-03-27T05:47:59.789Z,56.16
2019-03-27T05:49:01.840Z,54.19
2019-03-27T05:50:07.597Z,54.29
2019-03-27T05:51:13.369Z,54.42
2019-03-27T05:52:20.179Z,54.37
2019-03-27T05:53:35.524Z,54.16
2019-03-27T05:54:44.620Z,53.63
2019-03-27T05:55:50.547Z,53.07
2019-03-27T05:56:56.292Z,53.66
2019-03-27T05:58:03.076Z,54.60
2019-03-27T05:59:09.129Z,53.45
2019-03-27T06:00:16.615Z,53.46
2019-03-27T06:01:22.720Z,53.56
2019-03-27T06:02:28.792Z,52.86
2019-03-27T06:03:34.530Z,51.74
2019-03-27T06:04:40.298Z,51.26
2019-03-27T06:05:47.688Z,51.16
2019-03-27T06:06:53.409Z,50.93
2019-03-27T06:07:59.201Z,50.71
2019-03-27T06:09:06.270Z,51.28
2019-03-27T06:10:12.188Z,50.75
2019-03-27T06:11:18.466Z,50.99
2019-03-27T06:12:24.212Z,51.25
2019-03-27T06:13:30.028Z,51.14
2019-03-27T06:14:35.825Z,51.40
2019-03-27T06:15:44.894Z,51.14
2019-03-27T06:16:49.624Z,52.11
2019-03-27T06:17:56.644Z,52.52
2019-03-27T06:19:02.778Z,52.83
2019-03-27T06:20:09.331Z,53.11
2019-03-27T06:21:15.167Z,53.21
2019-03-27T06:22:21.151Z,53.58
2019-03-27T06:23:27.786Z,52.66
2019-03-27T06:24:33.709Z,53.52
2019-03-27T06:25:39.423Z,53.37
2019-03-27T06:26:46.846Z,53.84
2019-03-27T06:28:07.919Z,53.49
2019-03-27T06:29:15.887Z,54.41
2019-03-27T06:30:21.719Z,54.35
2019-03-27T06:31:27.954Z,55.04
2019-03-27T06:32:33.876Z,55.43
2019-03-27T06:33:39.758Z,55.41
2019-03-27T06:34:45.515Z,55.23
2019-03-27T06:35:51.693Z,55.95
2019-03-27T06:36:57.829Z,55.25
2019-03-27T06:38:04.545Z,55.06
2019-03-27T06:39:11.049Z,55.77
2019-03-27T06:40:18.149Z,56.05
2019-03-27T06:41:26.158Z,55.84
2019-03-27T06:42:31.864Z,55.94
2019-03-27T06:43:37.753Z,55.12
2019-03-27T06:44:43.558Z,55.20
2019-03-27T06:45:51.896Z,54.99
2019-03-27T06:46:57.748Z,54.18
2019-03-27T06:48:03.594Z,53.21
2019-03-27T06:49:09.355Z,52.11
2019-03-27T06:50:15.119Z,51.74
2019-03-27T06:51:20.923Z,51.30
2019-03-27T06:52:26.731Z,50.07
2019-03-27T06:53:32.609Z,49.11
2019-03-27T06:54:40.271Z,47.75
2019-03-27T06:55:46.437Z,46.59
2019-03-27T06:56:52.807Z,45.47
2019-03-27T06:58:00.445Z,45.55
2019-03-27T06:59:06.240Z,45.76
2019-03-27T07:00:12.304Z,43.93
2019-03-27T07:01:18.205Z,43.88
2019-03-27T07:02:24.306Z,42.21
2019-03-27T07:03:31.373Z,41.83
2019-03-27T07:04:38.064Z,41.59
2019-03-27T07:05:43.862Z,39.86
2019-03-27T07:06:49.796Z,39.55
2019-03-27T07:07:56.728Z,38.74
2019-03-27T07:09:02.551Z,39.43
2019-03-27T07:10:08.925Z,38.45
2019-03-27T07:11:22.498Z,38.95
2019-03-27T07:12:28.367Z,39.57
2019-03-27T07:13:34.173Z,41.71
2019-03-27T07:14:40.077Z,43.33
2019-03-27T07:15:46.055Z,44.68
2019-03-27T07:16:51.902Z,46.12
2019-03-27T07:17:57.832Z,46.94
2019-03-27T07:19:03.704Z,48.57
2019-03-27T07:20:09.571Z,49.55
2019-03-27T07:21:16.449Z,50.57
2019-03-27T07:22:23.372Z,51.41
2019-03-27T07:23:29.179Z,52.86
2019-03-27T07:24:34.962Z,53.92
2019-03-27T07:25:42.593Z,54.69
2019-03-27T07:26:48.683Z,55.52
2019-03-27T07:27:54.424Z,56.51
2019-03-27T07:29:00.344Z,56.78
2019-03-27T07:30:07.485Z,57.56
2019-03-27T07:31:13.356Z,58.12
2019-03-27T07:32:19.081Z,58.61
2019-03-27T07:33:24.989Z,59.06
2019-03-27T07:34:30.902Z,59.32
2019-03-27T07:35:36.713Z,59.99
2019-03-27T07:36:43.837Z,60.44
2019-03-27T07:37:49.580Z,60.51
2019-03-27T07:38:55.503Z,61.14
2019-03-27T07:40:01.535Z,61.18
2019-03-27T07:41:07.671Z,61.46
2019-03-27T07:42:13.595Z,62.26
2019-03-27T07:43:19.377Z,63.72
2019-03-27T07:44:25.147Z,64.34
2019-03-27T07:45:32.508Z,64.17
2019-03-27T07:46:39.644Z,63.58
2019-03-27T07:47:48.147Z,62.40
2019-03-27T07:48:54.460Z,60.11
2019-03-27T07:50:01.599Z,56.61
2019-03-27T07:51:07.455Z,55.14
2019-03-27T07:52:13.184Z,54.89
2019-03-27T07:53:22.636Z,55.50
2019-03-27T07:54:28.539Z,56.17
2019-03-27T07:55:35.493Z,57.66
2019-03-27T07:56:41.401Z,58.03
2019-03-27T07:57:47.179Z,58.28
2019-03-27T07:58:52.991Z,59.17
2019-03-27T07:59:59.039Z,59.70
2019-03-27T08:01:04.821Z,60.06
2019-03-27T08:02:10.883Z,61.27
2019-03-27T08:03:16.765Z,61.22
2019-03-27T08:04:22.835Z,62.15
2019-03-27T08:05:28.766Z,63.62
2019-03-27T08:06:37.554Z,65.04
2019-03-27T08:07:43.390Z,64.63
2019-03-27T08:08:49.293Z,63.38
2019-03-27T08:09:55.094Z,61.07
2019-03-27T08:11:01.037Z,59.49
2019-03-27T08:12:06.894Z,56.39
2019-03-27T08:13:12.698Z,54.41
2019-03-27T08:14:18.645Z,54.68
2019-03-27T08:15:24.457Z,54.67
2019-03-27T08:16:30.917Z,55.18
2019-03-27T08:17:37.620Z,55.58
2019-03-27T08:18:45.255Z,55.89
2019-03-27T08:19:51.286Z,56.67
2019-03-27T08:20:57.225Z,58.33
2019-03-27T08:22:03.291Z,58.14
2019-03-27T08:23:09.397Z,58.29
2019-03-27T08:24:15.365Z,59.00
2019-03-27T08:25:21.185Z,59.94
2019-03-27T08:26:26.931Z,59.61
2019-03-27T08:27:32.747Z,60.83
2019-03-27T08:28:38.831Z,61.73
2019-03-27T08:29:45.578Z,61.76
2019-03-27T08:30:52.406Z,61.85
2019-03-27T08:31:58.324Z,61.73
2019-03-27T08:33:04.566Z,61.93
2019-03-27T08:34:10.316Z,63.81
2019-03-27T08:35:16.115Z,63.94
2019-03-27T08:36:21.877Z,62.70
2019-03-27T08:37:27.687Z,61.15
2019-03-27T08:38:33.475Z,60.52
2019-03-27T08:39:39.388Z,58.19
2019-03-27T08:40:45.279Z,55.78
2019-03-27T08:41:52.760Z,53.15
2019-03-27T08:42:59.412Z,52.54
2019-03-27T08:44:05.452Z,52.89
2019-03-27T08:45:14.319Z,52.74
2019-03-27T08:46:20.505Z,52.96
2019-03-27T08:47:26.509Z,53.85
2019-03-27T08:48:32.382Z,53.67
2019-03-27T08:49:38.241Z,53.25
2019-03-27T08:50:44.278Z,53.64
2019-03-27T08:51:50.235Z,54.70
2019-03-27T08:52:56.181Z,55.15
2019-03-27T08:54:02.975Z,55.48
2019-03-27T08:55:09.235Z,56.60
2019-03-27T08:56:15.024Z,56.36
2019-03-27T08:57:20.812Z,56.78
2019-03-27T08:58:26.605Z,57.35
2019-03-27T08:59:32.606Z,56.93
2019-03-27T09:00:54.850Z,57.86
2019-03-27T09:02:00.668Z,56.55
2019-03-27T09:03:06.491Z,57.00
2019-03-27T09:04:12.396Z,58.12
2019-03-27T09:05:18.242Z,58.46
2019-03-27T09:06:33.499Z,58.58
2019-03-27T09:07:31.366Z,59.04
2019-03-27T09:08:37.248Z,59.03
2019-03-27T09:09:43.021Z,59.15
2019-03-27T09:10:48.939Z,59.31
2019-03-27T09:11:54.691Z,57.69
2019-03-27T09:13:07.305Z,57.72
2019-03-27T09:14:13.154Z,56.85
2019-03-27T09:15:18.932Z,56.55
2019-03-27T09:16:24.709Z,56.47
2019-03-27T09:17:30.445Z,55.24
2019-03-27T09:18:37.495Z,55.12
2019-03-27T09:19:43.710Z,53.73
2019-03-27T09:20:49.791Z,55.53
2019-03-27T09:21:55.858Z,56.98
2019-03-27T09:23:01.727Z,56.60
2019-03-27T09:24:07.708Z,55.92
2019-03-27T09:25:13.647Z,55.90
2019-03-27T09:26:19.719Z,56.70
2019-03-27T09:27:25.469Z,56.68
2019-03-27T09:28:31.491Z,56.07
2019-03-27T09:29:37.289Z,56.13
2019-03-27T09:30:43.381Z,56.36
2019-03-27T09:31:49.369Z,56.84
2019-03-27T09:32:55.215Z,57.04
2019-03-27T09:34:01.189Z,55.89
2019-03-27T09:35:07.113Z,56.07
2019-03-27T09:36:12.995Z,54.43
2019-03-27T09:37:18.754Z,54.38
2019-03-27T09:38:24.665Z,53.83
2019-03-27T09:39:30.641Z,54.15
2019-03-27T09:40:36.443Z,52.77
2019-03-27T09:41:42.300Z,52.94
2019-03-27T09:42:48.053Z,54.25
2019-03-27T09:43:54.171Z,53.32
2019-03-27T09:45:00.102Z,52.73
2019-03-27T09:46:05.945Z,53.19
2019-03-27T09:47:11.852Z,52.41
2019-03-27T09:48:17.675Z,52.46
2019-03-27T09:49:23.760Z,53.44
2019-03-27T09:50:29.788Z,53.11
2019-03-27T09:51:35.845Z,53.08
2019-03-27T09:52:41.789Z,52.69
2019-03-27T09:53:47.859Z,52.40
2019-03-27T09:54:54.034Z,53.04
2019-03-27T09:55:59.807Z,52.94
2019-03-27T09:57:05.619Z,52.77
2019-03-27T09:58:11.609Z,53.15
2019-03-27T09:59:17.837Z,51.88
2019-03-27T10:00:49.807Z,51.43
2019-03-27T10:01:55.867Z,51.94
2019-03-27T10:03:01.953Z,50.53
2019-03-27T10:04:07.885Z,50.51
2019-03-27T10:05:14.748Z,51.13
2019-03-27T10:06:20.710Z,51.50
2019-03-27T10:07:26.581Z,51.74
2019-03-27T10:08:32.464Z,48.86
2019-03-27T10:09:38.557Z,48.64
2019-03-27T10:10:44.393Z,48.83
2019-03-27T10:11:50.421Z,48.95
2019-03-27T10:12:56.477Z,50.21
2019-03-27T10:14:02.279Z,50.36
2019-03-27T10:15:09.155Z,50.46
2019-03-27T10:16:14.983Z,50.63
2019-03-27T10:17:20.767Z,50.18
2019-03-27T10:18:26.535Z,50.81
2019-03-27T10:19:32.300Z,50.37
2019-03-27T10:20:38.078Z,48.84
2019-03-27T10:21:43.936Z,49.17
2019-03-27T10:22:49.712Z,49.95
2019-03-27T10:23:55.639Z,50.34
2019-03-27T10:25:01.475Z,48.88
2019-03-27T10:26:07.473Z,49.25
2019-03-27T10:27:13.360Z,49.25
2019-03-27T10:28:19.189Z,50.17
2019-03-27T10:29:25.252Z,49.45
2019-03-27T10:30:31.114Z,49.28
2019-03-27T10:31:37.027Z,49.07
2019-03-27T10:32:43.300Z,49.32
2019-03-27T10:33:49.257Z,50.27
2019-03-27T10:34:55.125Z,49.72
2019-03-27T10:36:01.085Z,49.86
2019-03-27T10:37:06.953Z,49.16
2019-03-27T10:38:12.727Z,49.47
2019-03-27T10:39:18.706Z,48.97
2019-03-27T10:40:24.604Z,48.48
2019-03-27T10:41:30.441Z,49.30
2019-03-27T10:42:36.359Z,49.96
2019-03-27T10:43:42.131Z,50.50
2019-03-27T10:44:48.022Z,51.03
2019-03-27T10:45:54.058Z,50.38
2019-03-27T10:47:00.109Z,51.01
2019-03-27T10:48:06.161Z,49.70
2019-03-27T10:49:12.162Z,50.27
2019-03-27T10:50:18.406Z,50.40
2019-03-27T10:51:24.310Z,50.38
2019-03-27T10:52:30.213Z,51.29
2019-03-27T10:53:37.105Z,50.21
2019-03-27T10:54:43.105Z,50.53
2019-03-27T10:55:48.996Z,50.61
2019-03-27T10:56:54.712Z,50.15
2019-03-27T10:58:00.564Z,50.93
2019-03-27T10:59:09.452Z,51.75
2019-03-27T11:00:15.295Z,51.79
2019-03-27T11:01:21.061Z,51.06
2019-03-27T11:02:26.941Z,51.60
2019-03-27T11:03:33.804Z,52.15
2019-03-27T11:04:39.652Z,52.32
2019-03-27T11:05:45.423Z,51.51
2019-03-27T11:06:51.582Z,51.26
2019-03-27T11:07:57.516Z,51.36
